Time;durP1;ratioP1;P1;durP2;ratioP2;P2;SDS_P1;SDS_P2;PMS_P1;PMS_P2;Temp;Humidity;BMP_temperature;BMP_pressure;BME280_temperature;BME280_humidity;BME280_pressure;Samples;Min_cycle;Max_cycle;Signal;HPM_P1;HPM_P2
2023/04/15 00:01:39;;;;;;;53.97;49.90;;;;;;;11.91;100.00;100288.03;6213794;23;20047;-92
2023/04/15 00:04:08;;;;;;;48.53;45.30;;;;;;;11.93;100.00;100291.28;6212613;23;20029;-92
2023/04/15 00:06:37;;;;;;;64.10;59.15;;;;;;;11.93;100.00;100290.47;6213008;23;20044;-92
2023/04/15 00:09:04;;;;;;;58.30;54.20;;;;;;;11.95;100.00;100283.06;6212579;23;20023;-91
2023/04/15 00:11:30;;;;;;;49.20;45.90;;;;;;;12.00;100.00;100283.22;6213310;23;20087;-91
2023/04/15 00:13:58;;;;;;;48.35;44.83;;;;;;;11.97;100.00;100279.16;6213032;23;20021;-92
2023/04/15 00:16:28;;;;;;;46.10;42.88;;;;;;;11.91;100.00;100258.75;6212695;23;20060;-91
2023/04/15 00:18:55;;;;;;;48.15;44.55;;;;;;;11.99;100.00;100262.97;6212791;23;20551;-91
2023/04/15 00:21:23;;;;;;;55.15;52.13;;;;;;;12.06;100.00;100267.13;6213246;23;20099;-90
2023/04/15 00:23:52;;;;;;;48.50;45.55;;;;;;;12.02;100.00;100270.50;6213176;23;20031;-90
2023/04/15 00:26:19;;;;;;;57.45;52.60;;;;;;;12.07;100.00;100271.44;6212890;23;20073;-89
2023/04/15 00:28:46;;;;;;;47.50;44.47;;;;;;;12.08;100.00;100277.56;6213467;23;20512;-90
2023/04/15 00:31:14;;;;;;;64.75;60.90;;;;;;;12.06;100.00;100277.78;6212911;23;20025;-89
2023/04/15 00:33:41;;;;;;;48.58;45.45;;;;;;;12.03;100.00;100280.91;6212222;23;20016;-93
2023/04/15 00:36:08;;;;;;;50.42;47.33;;;;;;;12.04;100.00;100287.03;6212312;23;20538;-91
2023/04/15 00:38:38;;;;;;;45.47;42.33;;;;;;;12.02;100.00;100289.13;6212948;23;20104;-92
2023/04/15 00:41:05;;;;;;;42.08;39.17;;;;;;;12.02;100.00;100276.63;6212656;23;20028;-90
2023/04/15 00:43:32;;;;;;;49.97;46.78;;;;;;;11.97;100.00;100288.97;6212821;23;20422;-92
2023/04/15 00:46:01;;;;;;;45.00;42.20;;;;;;;12.02;100.00;100279.28;6212462;23;20506;-91
2023/04/15 00:48:28;;;;;;;43.80;40.78;;;;;;;11.95;100.00;100281.22;6212227;23;20051;-91
2023/04/15 00:50:55;;;;;;;49.00;45.58;;;;;;;11.92;100.00;100286.97;6212800;23;20027;-92
2023/04/15 00:53:22;;;;;;;46.22;42.80;;;;;;;11.86;100.00;100280.75;6212778;23;20083;-93
2023/04/15 00:55:51;;;;;;;44.40;41.40;;;;;;;11.89;100.00;100282.94;6211820;23;20025;-92
2023/04/15 00:58:18;;;;;;;51.75;48.35;;;;;;;11.91;100.00;100286.19;6212389;23;20024;-92
2023/04/15 01:00:46;;;;;;;54.00;50.40;;;;;;;11.91;100.00;100282.72;6212549;23;20064;-92
2023/04/15 01:03:14;;;;;;;50.67;47.38;;;;;;;11.91;100.00;100270.22;6211755;23;20020;-91
2023/04/15 01:05:41;;;;;;;47.10;44.03;;;;;;;11.82;100.00;100268.88;6212316;23;20020;-91
2023/04/15 01:08:08;;;;;;;49.90;46.63;;;;;;;11.93;100.00;100266.53;6212607;23;20036;-92
2023/04/15 01:10:35;;;;;;;49.75;46.50;;;;;;;11.94;100.00;100260.97;6211807;23;20023;-90
2023/04/15 01:13:04;;;;;;;52.78;49.55;;;;;;;12.00;100.00;100277.88;6212888;23;20031;-91
2023/04/15 01:15:31;;;;;;;49.63;46.53;;;;;;;11.86;100.00;100275.41;6212699;23;20017;-92
2023/04/15 01:17:59;;;;;;;51.38;48.38;;;;;;;12.00;100.00;100286.69;6212384;23;20031;-92
2023/04/15 01:20:29;;;;;;;52.08;48.53;;;;;;;11.55;100.00;100300.31;6212598;23;20048;-90
2023/04/15 01:22:59;;;;;;;51.60;47.55;;;;;;;11.43;100.00;100307.41;6213128;23;20016;-92
2023/04/15 01:25:32;;;;;;;53.95;50.00;;;;;;;11.58;100.00;100318.47;6212390;23;20020;-91
2023/04/15 01:27:59;;;;;;;53.05;48.95;;;;;;;11.63;100.00;100315.97;6212351;23;20103;-92
2023/04/15 01:30:29;;;;;;;48.47;44.45;;;;;;;11.64;100.00;100320.25;6212093;23;20021;-91
2023/04/15 01:32:56;;;;;;;48.15;44.35;;;;;;;11.64;100.00;100320.25;6211878;23;20023;-91
2023/04/15 01:35:23;;;;;;;49.75;45.50;;;;;;;11.53;100.00;100320.16;6206895;23;20026;-92
2023/04/15 01:37:50;;;;;;;54.20;49.70;;;;;;;11.40;100.00;100326.44;6211486;23;20021;-91
2023/04/15 01:40:17;;;;;;;51.35;47.15;;;;;;;11.38;100.00;100323.22;6211589;23;20029;-91
2023/04/15 01:42:46;;;;;;;53.55;49.08;;;;;;;11.29;100.00;100327.19;6212263;23;20483;-91
2023/04/15 01:45:13;;;;;;;56.55;51.65;;;;;;;11.14;100.00;100327.53;6211965;23;20098;-92
2023/04/15 01:47:40;;;;;;;57.85;52.60;;;;;;;11.03;100.00;100318.44;6211619;23;20404;-89
2023/04/15 01:50:07;;;;;;;59.05;54.65;;;;;;;11.55;100.00;100334.88;6212167;23;20025;-92
2023/04/15 01:52:34;;;;;;;54.33;49.92;;;;;;;11.22;100.00;100335.22;6212007;23;20017;-91
2023/04/15 01:55:01;;;;;;;55.20;50.60;;;;;;;11.07;100.00;100346.19;6212112;23;20467;-91
2023/04/15 01:57:28;;;;;;;60.60;55.50;;;;;;;10.86;100.00;100331.47;6212056;23;20025;-92
2023/04/15 01:59:57;;;;;;;77.57;71.57;;;;;;;10.58;100.00;100325.75;6211864;23;20032;-92
2023/04/15 02:02:24;;;;;;;74.85;68.72;;;;;;;10.80;100.00;100326.19;6212555;23;20398;-91
2023/04/15 02:04:52;;;;;;;78.00;71.53;;;;;;;10.77;100.00;100317.63;6211822;23;20068;-91
2023/04/15 02:07:19;;;;;;;66.43;60.40;;;;;;;10.85;100.00;100311.22;6211411;23;20028;-91
2023/04/15 02:09:46;;;;;;;72.18;65.75;;;;;;;10.82;100.00;100300.22;6211864;23;20079;-92
2023/04/15 02:12:13;;;;;;;82.00;73.85;;;;;;;10.69;100.00;100296.66;6211880;23;20024;-90
2023/04/15 02:14:40;;;;;;;70.50;64.35;;;;;;;10.45;100.00;100294.78;6211977;23;20043;-91
2023/04/15 02:17:08;;;;;;;68.03;62.13;;;;;;;10.45;100.00;100300.09;6211385;23;20451;-91
2023/04/15 02:19:35;;;;;;;69.05;63.05;;;;;;;10.53;100.00;100327.22;6211799;23;20447;-91
2023/04/15 02:22:02;;;;;;;69.10;63.10;;;;;;;10.29;100.00;100326.13;6212234;23;20021;-91
2023/04/15 02:24:30;;;;;;;82.32;75.30;;;;;;;10.32;100.00;100325.72;6211681;23;20120;-91
2023/04/15 02:26:57;;;;;;;77.85;71.13;;;;;;;10.35;100.00;100340.41;6211750;23;20025;-90
2023/04/15 02:29:24;;;;;;;82.55;75.25;;;;;;;10.25;100.00;100343.47;6211759;23;20039;-91
2023/04/15 02:31:51;;;;;;;79.97;72.57;;;;;;;10.19;100.00;100351.47;6211662;23;20020;-91
2023/04/15 02:34:19;;;;;;;90.18;82.47;;;;;;;10.15;100.00;100352.94;6211458;23;20021;-91
2023/04/15 02:36:47;;;;;;;107.70;99.10;;;;;;;10.18;100.00;100342.69;6211796;23;20024;-91
2023/04/15 02:39:15;;;;;;;92.35;84.55;;;;;;;10.19;100.00;100332.88;6211407;23;20460;-91
2023/04/15 02:41:42;;;;;;;82.35;75.13;;;;;;;10.09;100.00;100318.25;6211910;23;20027;-90
2023/04/15 02:44:11;;;;;;;86.95;79.43;;;;;;;9.89;100.00;100274.25;6211803;23;20024;-90
2023/04/15 02:46:40;;;;;;;78.53;71.53;;;;;;;9.62;100.00;100277.03;6211491;23;20016;-91
2023/04/15 02:49:07;;;;;;;82.45;75.25;;;;;;;9.39;100.00;100309.34;6211144;23;20036;-91
2023/04/15 02:51:35;;;;;;;103.88;95.18;;;;;;;9.63;100.00;100321.91;6211278;23;20016;-91
2023/04/15 02:54:02;;;;;;;94.90;86.75;;;;;;;9.53;100.00;100339.25;6211707;23;20021;-91
2023/04/15 02:56:30;;;;;;;130.98;120.88;;;;;;;9.24;100.00;100346.66;6211585;23;20031;-92
2023/04/15 02:58:59;;;;;;;113.63;104.43;;;;;;;9.46;100.00;100354.38;6211748;23;20025;-91
2023/04/15 03:01:29;;;;;;;99.05;90.28;;;;;;;9.45;100.00;100356.22;6211741;23;20431;-91
2023/04/15 03:03:56;;;;;;;97.55;89.25;;;;;;;9.53;100.00;100353.34;6211353;23;20036;-91
2023/04/15 03:06:23;;;;;;;97.45;89.13;;;;;;;9.59;100.00;100344.56;6211143;23;20099;-91
2023/04/15 03:08:51;;;;;;;96.15;86.60;;;;;;;9.56;100.00;100346.81;6211730;23;20027;-91
2023/04/15 03:11:20;;;;;;;90.13;82.35;;;;;;;9.39;100.00;100331.34;6211736;23;20024;-92
2023/04/15 03:13:47;;;;;;;115.95;107.25;;;;;;;9.36;100.00;100328.31;6211789;23;20227;-91
2023/04/15 03:16:14;;;;;;;85.32;78.32;;;;;;;8.59;100.00;100337.69;6211795;23;20020;-92
2023/04/15 03:18:40;;;;;;;76.82;70.32;;;;;;;8.39;100.00;100356.22;6212893;23;20027;-91
2023/04/15 03:21:07;;;;;;;85.28;77.65;;;;;;;8.50;100.00;100360.88;6213445;23;20020;-91
2023/04/15 03:23:34;;;;;;;79.85;72.35;;;;;;;8.60;100.00;100377.22;6213641;23;20051;-91
2023/04/15 03:26:04;;;;;;;83.07;75.40;;;;;;;8.67;100.00;100390.47;6214247;23;20455;-91
2023/04/15 03:28:31;;;;;;;79.20;71.75;;;;;;;8.47;100.00;100403.63;6213138;23;20024;-90
2023/04/15 03:30:58;;;;;;;85.15;77.38;;;;;;;8.80;100.00;100409.00;6213752;23;20023;-91
2023/04/15 03:33:28;;;;;;;80.47;73.03;;;;;;;8.88;100.00;100413.31;6213583;23;20021;-90
2023/04/15 03:35:56;;;;;;;76.70;69.38;;;;;;;8.97;100.00;100398.84;6213481;23;20082;-90
2023/04/15 03:38:23;;;;;;;78.90;71.55;;;;;;;8.94;100.00;100400.06;6213253;23;20028;-91
2023/04/15 03:40:49;;;;;;;79.85;72.85;;;;;;;8.96;100.00;100407.81;6212775;23;20083;-92
2023/04/15 03:43:18;;;;;;;78.10;71.25;;;;;;;9.04;100.00;100410.25;6213363;23;20430;-91
2023/04/15 03:45:45;;;;;;;76.95;70.15;;;;;;;8.97;100.00;100404.16;6212793;23;20462;-90
2023/04/15 03:48:11;;;;;;;73.95;67.30;;;;;;;8.86;100.00;100402.09;6212234;23;20017;-91
2023/04/15 03:50:38;;;;;;;75.30;68.82;;;;;;;8.87;100.00;100409.84;6213502;23;20017;-91
2023/04/15 03:53:05;;;;;;;69.93;63.58;;;;;;;8.64;100.00;100404.09;6213316;23;20090;-91
2023/04/15 03:55:32;;;;;;;70.68;64.47;;;;;;;8.78;100.00;100403.13;6213303;23;20023;-91
2023/04/15 03:57:59;;;;;;;72.75;66.25;;;;;;;8.62;100.00;100400.84;6212598;23;20029;-91
2023/04/15 04:00:27;;;;;;;90.18;82.85;;;;;;;8.87;100.00;100390.50;6212685;23;20023;-91
2023/04/15 04:02:54;;;;;;;77.05;70.00;;;;;;;9.07;100.00;100399.25;6213720;23;20027;-91
2023/04/15 04:05:21;;;;;;;79.05;72.07;;;;;;;9.12;100.00;100396.00;6212880;23;20025;-90
2023/04/15 04:07:47;;;;;;;77.60;70.75;;;;;;;9.25;100.00;100400.47;6213014;23;20031;-91
2023/04/15 04:10:14;;;;;;;76.80;69.65;;;;;;;9.29;100.00;100404.34;6212306;23;20025;-92
2023/04/15 04:12:41;;;;;;;82.40;75.00;;;;;;;9.18;100.00;100397.84;6213405;23;20017;-91
2023/04/15 04:15:09;;;;;;;82.53;75.13;;;;;;;9.32;100.00;100398.63;6213152;23;20025;-91
2023/04/15 04:17:37;;;;;;;78.05;70.65;;;;;;;8.87;100.00;100386.00;6212874;23;20028;-91
2023/04/15 04:20:04;;;;;;;82.88;75.40;;;;;;;9.10;100.00;100390.09;6213180;23;20020;-91
2023/04/15 04:22:31;;;;;;;85.47;77.68;;;;;;;9.37;100.00;100391.69;6212659;23;20099;-92
2023/04/15 04:24:59;;;;;;;89.43;81.60;;;;;;;9.35;100.00;100395.59;6212861;23;20545;-91
2023/04/15 04:27:26;;;;;;;86.57;78.85;;;;;;;9.12;100.00;100396.00;6212754;23;20503;-91
2023/04/15 04:29:53;;;;;;;82.65;75.45;;;;;;;8.91;100.00;100412.91;6212511;23;20031;-91
2023/04/15 04:32:19;;;;;;;82.03;74.82;;;;;;;8.99;100.00;100417.22;6212457;23;20017;-90
2023/04/15 04:34:48;;;;;;;97.60;89.40;;;;;;;9.24;100.00;100420.06;6212754;23;20020;-91
2023/04/15 04:37:15;;;;;;;100.47;91.60;;;;;;;9.34;100.00;100433.72;6212400;23;20552;-91
2023/04/15 04:39:41;;;;;;;99.13;89.25;;;;;;;9.49;100.00;100423.69;6212327;23;20028;-91
2023/04/15 04:42:08;;;;;;;103.32;93.15;;;;;;;9.59;100.00;100442.69;6212348;23;20027;-91
2023/04/15 04:44:36;;;;;;;99.00;89.70;;;;;;;9.61;100.00;100443.28;6213244;23;20016;-90
2023/04/15 04:47:02;;;;;;;91.95;83.82;;;;;;;9.55;100.00;100446.75;6212079;23;20021;-89
2023/04/15 04:49:29;;;;;;;91.40;83.15;;;;;;;9.68;100.00;100451.22;6212543;23;20021;-91
2023/04/15 04:51:58;;;;;;;88.60;80.60;;;;;;;9.67;100.00;100452.25;6212952;23;20017;-89
2023/04/15 04:54:26;;;;;;;89.90;82.25;;;;;;;9.79;100.00;100452.44;6212474;23;20047;-91
2023/04/15 04:56:53;;;;;;;87.80;80.43;;;;;;;9.71;100.00;100442.84;6209723;23;20024;-92
2023/04/15 04:59:20;;;;;;;90.88;83.35;;;;;;;9.54;100.00;100445.13;6211322;23;20024;-91
2023/04/15 05:01:47;;;;;;;96.43;88.40;;;;;;;9.74;100.00;100460.19;6210513;23;20029;-89
2023/04/15 05:04:13;;;;;;;89.43;81.10;;;;;;;9.71;100.00;100465.91;6212321;23;20021;-91
2023/04/15 05:06:40;;;;;;;87.57;79.88;;;;;;;9.52;100.00;100468.38;6212157;23;20363;-91
2023/04/15 05:09:08;;;;;;;91.03;83.32;;;;;;;10.00;100.00;100470.75;6210610;23;20020;-91
2023/04/15 05:11:35;;;;;;;86.38;78.70;;;;;;;10.06;100.00;100461.16;6212338;23;20048;-91
2023/04/15 05:14:02;;;;;;;92.43;84.50;;;;;;;9.84;100.00;100458.75;6210572;23;20028;-91
2023/04/15 05:16:29;;;;;;;86.50;79.00;;;;;;;9.75;100.00;100473.25;6210446;23;20032;-92
2023/04/15 05:18:58;;;;;;;88.18;81.07;;;;;;;9.86;100.00;100480.59;6211199;23;20408;-92
2023/04/15 05:21:26;;;;;;;91.15;83.75;;;;;;;10.02;100.00;100479.31;6210465;23;20017;-88
2023/04/15 05:23:53;;;;;;;89.65;82.68;;;;;;;10.24;100.00;100485.19;6210498;23;20017;-91
2023/04/15 05:26:23;;;;;;;87.38;80.57;;;;;;;10.69;100.00;100482.56;6202367;23;20043;-91
2023/04/15 05:28:49;;;;;;;92.05;84.30;;;;;;;10.76;100.00;100486.00;6206187;23;20016;-92
2023/04/15 05:31:16;;;;;;;95.38;87.43;;;;;;;10.77;100.00;100494.78;6205992;23;20386;-91
2023/04/15 05:33:43;;;;;;;87.80;81.00;;;;;;;10.67;100.00;100495.25;6206488;23;20020;-91
2023/04/15 05:36:10;;;;;;;88.10;81.45;;;;;;;10.54;100.00;100498.78;6208090;23;20028;-91
2023/04/15 05:38:37;;;;;;;80.35;73.80;;;;;;;10.72;100.00;100492.78;6208376;23;20020;-91
2023/04/15 05:41:04;;;;;;;81.97;75.30;;;;;;;10.82;100.00;100483.53;6208410;23;20522;-91
2023/04/15 05:43:32;;;;;;;84.90;78.10;;;;;;;11.09;100.00;100479.69;6208860;23;20020;-91
2023/04/15 05:45:59;;;;;;;99.88;91.97;;;;;;;11.19;100.00;100495.16;6208117;23;20028;-92
2023/04/15 05:48:29;;;;;;;104.05;95.68;;;;;;;11.37;100.00;100487.25;6207646;23;20021;-91
2023/04/15 05:50:56;;;;;;;103.07;94.85;;;;;;;11.48;100.00;100480.41;6207551;23;20364;-91
2023/04/15 05:53:23;;;;;;;104.95;96.55;;;;;;;11.60;100.00;100488.50;6207174;23;20394;-91
2023/04/15 05:55:49;;;;;;;101.35;93.43;;;;;;;11.75;100.00;100496.16;6207384;23;20028;-90
2023/04/15 05:58:16;;;;;;;98.88;91.20;;;;;;;11.66;100.00;100488.44;6207450;23;20380;-92
2023/04/15 06:00:45;;;;;;;95.90;88.68;;;;;;;11.85;100.00;100491.16;6208557;23;20028;-90
2023/04/15 06:03:12;;;;;;;103.22;95.63;;;;;;;12.12;100.00;100484.53;6206855;23;20028;-91
2023/04/15 06:05:39;;;;;;;93.88;86.72;;;;;;;12.35;100.00;100491.88;6207252;23;20462;-91
2023/04/15 06:08:07;;;;;;;92.95;85.65;;;;;;;12.49;100.00;100489.84;6207707;23;20020;-90
2023/04/15 06:10:35;;;;;;;92.00;85.10;;;;;;;12.39;100.00;100489.56;6207119;23;20047;-92
2023/04/15 06:13:02;;;;;;;87.15;80.45;;;;;;;12.32;100.00;100489.66;6208587;23;20027;-90
2023/04/15 06:15:29;;;;;;;90.30;83.40;;;;;;;12.54;100.00;100490.00;6207924;23;20026;-90
2023/04/15 06:17:57;;;;;;;88.90;82.45;;;;;;;12.55;100.00;100494.25;6208581;23;20031;-94
2023/04/15 06:20:24;;;;;;;86.32;79.75;;;;;;;12.76;100.00;100495.63;6210003;23;20021;-92
2023/04/15 06:22:51;;;;;;;90.10;83.57;;;;;;;12.83;100.00;100487.59;6208296;23;20024;-91
2023/04/15 06:25:18;;;;;;;87.32;80.88;;;;;;;13.11;100.00;100486.97;6210718;23;20023;-91
2023/04/15 06:27:45;;;;;;;89.78;82.93;;;;;;;13.21;100.00;100497.06;6210600;23;20044;-91
2023/04/15 06:30:12;;;;;;;91.63;84.95;;;;;;;13.48;100.00;100494.84;6210340;23;20379;-91
2023/04/15 06:32:39;;;;;;;85.72;79.40;;;;;;;13.57;100.00;100492.63;6209746;23;20023;-91
2023/04/15 06:35:08;;;;;;;69.10;63.70;;;;;;;13.68;100.00;100498.00;6209496;23;20023;-91
2023/04/15 06:37:35;;;;;;;66.85;61.88;;;;;;;13.72;100.00;100491.13;6209320;23;20027;-90
2023/04/15 06:40:03;;;;;;;64.13;59.33;;;;;;;13.69;100.00;100498.78;6208547;23;20441;-90
2023/04/15 06:42:31;;;;;;;65.20;60.08;;;;;;;13.86;100.00;100499.72;6208631;23;20083;-90
2023/04/15 06:44:57;;;;;;;55.45;51.15;;;;;;;14.05;100.00;100500.41;6211726;23;20040;-90
2023/04/15 06:47:25;;;;;;;36.10;33.15;;;;;;;13.76;100.00;100499.47;6211682;23;20087;-90
2023/04/15 06:49:51;;;;;;;35.80;33.03;;;;;;;13.58;100.00;100503.06;6211038;23;20371;-90
2023/04/15 06:52:20;;;;;;;37.88;35.05;;;;;;;13.78;100.00;100501.94;6211836;23;20048;-90
2023/04/15 06:54:46;;;;;;;36.30;33.40;;;;;;;14.04;100.00;100506.81;6211354;23;20021;-89
2023/04/15 06:57:13;;;;;;;37.03;33.85;;;;;;;13.92;100.00;100503.34;6213164;23;20020;-90
2023/04/15 06:59:41;;;;;;;35.42;32.65;;;;;;;14.27;100.00;100505.13;6213230;23;20020;-89
2023/04/15 07:02:12;;;;;;;33.88;31.00;;;;;;;14.22;100.00;100511.19;6212794;23;20025;-90
2023/04/15 07:04:39;;;;;;;32.65;29.83;;;;;;;14.28;100.00;100502.25;6211479;23;20118;-92
2023/04/15 07:07:06;;;;;;;33.13;30.33;;;;;;;14.41;100.00;100517.19;6211174;23;20020;-92
2023/04/15 07:09:35;;;;;;;33.60;30.88;;;;;;;14.46;100.00;100513.81;6211029;23;20016;-89
2023/04/15 07:12:01;;;;;;;31.15;28.63;;;;;;;14.48;100.00;100512.53;6210495;23;20027;-92
2023/04/15 07:14:29;;;;;;;30.05;27.55;;;;;;;14.74;100.00;100510.41;6211089;23;20027;-89
2023/04/15 07:16:56;;;;;;;28.35;25.95;;;;;;;14.66;100.00;100514.25;6210752;23;20399;-90
2023/04/15 07:19:23;;;;;;;33.03;30.20;;;;;;;15.01;100.00;100526.69;6209882;23;20095;-91
2023/04/15 07:21:50;;;;;;;29.70;27.38;;;;;;;14.92;100.00;100528.91;6208566;23;20098;-91
2023/04/15 07:24:18;;;;;;;27.67;25.58;;;;;;;14.99;100.00;100536.78;6209630;23;20024;-91
2023/04/15 07:26:47;;;;;;;24.10;21.90;;;;;;;14.69;100.00;100537.03;6208868;23;20029;-90
2023/04/15 07:29:13;;;;;;;23.83;22.02;;;;;;;14.86;100.00;100541.38;6209759;23;20024;-90
2023/04/15 07:31:41;;;;;;;25.60;23.70;;;;;;;15.20;100.00;100544.13;6210438;23;20020;-91
2023/04/15 07:34:08;;;;;;;22.70;21.20;;;;;;;15.07;100.00;100549.78;6211692;23;20500;-91
2023/04/15 07:36:35;;;;;;;22.60;20.60;;;;;;;15.09;100.00;100545.81;6211271;23;20017;-91
2023/04/15 07:39:03;;;;;;;25.77;23.70;;;;;;;14.81;100.00;100556.50;6211699;23;20063;-91
2023/04/15 07:41:30;;;;;;;26.70;24.60;;;;;;;14.49;100.00;100554.22;6212209;23;20450;-91
2023/04/15 07:43:58;;;;;;;31.42;28.83;;;;;;;14.86;100.00;100552.06;6212890;23;20024;-92
2023/04/15 07:46:28;;;;;;;27.70;25.52;;;;;;;14.41;100.00;100570.63;6211935;23;20028;-90
2023/04/15 07:48:54;;;;;;;26.13;24.23;;;;;;;14.36;100.00;100567.84;6212367;23;20069;-91
2023/04/15 07:51:21;;;;;;;30.73;28.13;;;;;;;14.59;100.00;100583.88;6212378;23;20020;-90
2023/04/15 07:53:49;;;;;;;33.67;30.83;;;;;;;14.80;100.00;100573.59;6212607;23;20040;-90
2023/04/15 07:56:16;;;;;;;31.90;29.17;;;;;;;15.09;100.00;100580.56;6212766;23;20021;-91
2023/04/15 07:58:43;;;;;;;28.17;25.98;;;;;;;14.96;100.00;100585.41;6212950;23;20095;-92
2023/04/15 08:01:11;;;;;;;30.05;27.75;;;;;;;14.78;100.00;100589.88;6211832;23;20029;-92
2023/04/15 08:03:39;;;;;;;28.33;26.05;;;;;;;14.98;100.00;100607.38;6207519;23;20016;-91
2023/04/15 08:06:06;;;;;;;28.55;26.45;;;;;;;15.07;100.00;100613.97;6212701;23;20021;-91
2023/04/15 08:08:33;;;;;;;25.35;23.48;;;;;;;15.07;100.00;100605.97;6212710;23;20479;-91
2023/04/15 08:11:00;;;;;;;22.75;20.90;;;;;;;14.55;100.00;100603.28;6212173;23;20044;-92
2023/04/15 08:13:27;;;;;;;27.63;25.63;;;;;;;15.07;100.00;100606.75;6210613;23;20027;-91
2023/04/15 09:05:55;;;;;;;20.95;19.25;;;;;;;15.16;100.00;100617.06;6245948;23;20023;-91
2023/04/15 09:09:13;;;;;;;20.50;18.90;;;;;;;15.00;100.00;100616.78;6244809;22;20488;-92
2023/04/15 09:21:23;;;;;;;20.50;18.88;;;;;;;15.68;100.00;100623.16;6236613;22;20046;-91
2023/04/15 09:51:23;;;;;;;20.20;18.45;;;;;;;18.58;100.00;100590.91;6227068;23;20027;-92
2023/04/15 10:03:48;;;;;;;20.10;18.40;;;;;;;19.49;100.00;100584.22;5919783;23;20026;-93
2023/04/15 10:19:21;;;;;;;20.95;19.20;;;;;;;18.60;100.00;100592.25;5963900;23;20028;-92
2023/04/15 10:26:01;;;;;;;21.02;19.20;;;;;;;17.05;100.00;100585.13;6016520;23;20028;-91
2023/04/15 10:41:44;;;;;;;20.63;19.00;;;;;;;16.84;100.00;100592.16;6181622;23;20099;-92
2023/04/15 10:44:50;;;;;;;19.95;18.30;;;;;;;19.43;100.00;100586.09;6180131;23;20027;-91
2023/04/15 10:47:58;;;;;;;20.55;18.95;;;;;;;19.55;100.00;100589.31;6180277;23;20048;-92
2023/04/15 11:00:40;;;;;;;20.38;18.52;;;;;;;18.95;100.00;100583.56;6177983;23;20028;-92
2023/04/15 11:11:01;;;;;;;19.90;18.30;;;;;;;17.63;100.00;100595.09;6183092;23;20048;-92
2023/04/15 11:14:12;;;;;;;19.50;17.90;;;;;;;21.62;64.54;100573.78;6163272;23;20032;-92
2023/04/15 11:17:23;;;;;;;19.42;17.75;;;;;;;22.13;76.06;100567.91;6136824;23;20025;-92
2023/04/15 11:26:18;;;;;;;;;;;;;;;;;;;;;
2023/04/15 11:32:28;;;;;;;19.80;18.00;;;;;;;22.65;74.38;100578.97;6080466;23;20418;-92
2023/04/15 11:35:17;;;;;;;;;;;;;;;;;;;;;
2023/04/15 11:41:28;;;;;;;21.02;19.13;;;;;;;20.88;82.00;100572.91;6039481;23;20431;-92
2023/04/15 11:54:16;;;;;;;19.83;17.90;;;;;;;19.91;93.43;100570.50;6075889;23;20032;-91
2023/04/15 12:00:10;;;;;;;20.40;18.55;;;;;;;22.41;66.89;100551.94;6174720;23;20052;-92
2023/04/15 12:05:57;;;;;;;20.92;19.13;;;;;;;22.05;58.79;100560.41;6153621;23;20025;-92
2023/04/15 12:09:11;;;;;;;20.52;18.63;;;;;;;21.43;60.97;100543.16;6091924;23;20026;-91
2023/04/15 12:12:11;;;;;;;19.63;17.92;;;;;;;21.18;73.23;100547.63;6177606;23;20441;-92
2023/04/15 12:18:23;;;;;;;21.75;19.73;;;;;;;19.25;100.00;100541.63;6174491;23;20413;-91
2023/04/15 12:21:23;;;;;;;23.27;21.45;;;;;;;20.28;81.20;100526.19;6114174;23;20026;-91
2023/04/15 12:30:08;;;;;;;21.13;19.30;;;;;;;19.20;86.46;100542.41;6151496;23;20040;-93
2023/04/15 12:32:36;;;;;;;19.70;18.00;;;;;;;19.78;96.64;100530.59;6176400;23;20025;-92
2023/04/15 12:35:45;;;;;;;21.50;19.83;;;;;;;19.01;97.23;100525.19;6178013;23;20094;-92
2023/04/15 12:38:37;;;;;;;20.63;19.02;;;;;;;19.89;85.72;100540.31;6177209;23;20036;-92
2023/04/15 12:50:47;;;;;;;20.35;18.55;;;;;;;19.45;78.28;100548.91;6139654;23;20027;-91
2023/04/15 12:56:32;;;;;;;19.45;17.85;;;;;;;20.41;77.87;100546.38;6166515;23;20025;-93
2023/04/15 12:59:34;;;;;;;20.80;19.00;;;;;;;20.69;62.86;100540.31;6229910;23;20090;-92
2023/04/15 13:03:11;;;;;;;20.77;19.08;;;;;;;20.85;70.32;100542.94;6226395;22;20077;-92
2023/04/15 13:06:22;;;;;;;20.48;18.67;;;;;;;19.63;96.08;100558.34;6237205;23;20093;-91
2023/04/15 13:08:53;;;;;;;20.95;19.05;;;;;;;21.14;90.70;100548.44;6236658;23;20103;-91
2023/04/15 13:11:43;;;;;;;21.23;19.42;;;;;;;19.59;89.56;100552.69;6237524;23;20505;-92
2023/04/15 13:17:19;;;;;;;20.63;18.85;;;;;;;20.30;65.87;100546.41;6161899;22;20025;-91
2023/04/15 13:30:04;;;;;;;22.58;20.50;;;;;;;19.91;91.33;100543.53;6198901;23;20035;-92
2023/04/15 13:35:59;;;;;;;21.40;19.50;;;;;;;20.59;64.52;100543.09;6234313;23;20439;-92
2023/04/15 13:39:00;;;;;;;25.52;23.25;;;;;;;20.73;57.50;100554.09;6209378;23;20024;-91
2023/04/15 13:45:02;;;;;;;30.23;27.52;;;;;;;20.54;79.40;100545.78;6207341;23;20520;-91
2023/04/15 13:54:02;;;;;;;21.25;19.45;;;;;;;20.21;60.61;100542.66;6208752;23;20022;-92
2023/04/15 13:56:55;;;;;;;23.00;21.08;;;;;;;20.57;67.07;100551.47;6208900;23;20078;-91
2023/04/15 13:59:55;;;;;;;23.10;21.00;;;;;;;20.60;66.24;100547.38;6208498;23;20027;-92
2023/04/15 14:06:00;;;;;;;21.92;20.17;;;;;;;19.34;89.82;100558.88;6195330;23;20099;-91
2023/04/15 14:18:43;;;;;;;20.33;18.63;;;;;;;19.30;73.06;100563.16;6089260;23;20026;-91
2023/04/15 14:21:31;;;;;;;;;;;;;;;;;;;;;
2023/04/15 14:27:56;;;;;;;21.23;19.23;;;;;;;19.66;72.99;100564.00;6096829;23;20086;-92
2023/04/15 14:37:40;;;;;;;20.10;18.42;;;;;;;18.88;78.23;100561.47;6031778;23;20058;-91
2023/04/15 14:49:40;;;;;;;19.77;18.08;;;;;;;19.20;78.36;100568.53;6175291;23;20028;-91
2023/04/15 15:13:07;;;;;;;24.52;22.52;;;;;;;18.51;90.49;100586.56;6096157;23;20021;-91
2023/04/15 15:18:43;;;;;;;20.92;19.23;;;;;;;18.58;85.55;100582.84;6206291;23;20028;-92
2023/04/15 15:21:10;;;;;;;19.38;17.88;;;;;;;18.68;89.27;100583.69;6212294;23;20024;-92
2023/04/15 15:23:45;;;;;;;19.85;18.23;;;;;;;18.68;91.98;100581.00;6213024;23;20021;-92
2023/04/15 15:26:12;;;;;;;23.42;21.30;;;;;;;18.62;98.02;100583.94;6212321;23;20017;-92
2023/04/15 15:28:41;;;;;;;21.38;19.30;;;;;;;18.59;96.50;100576.41;6212254;23;20013;-91
2023/04/15 15:31:08;;;;;;;21.73;20.23;;;;;;;18.61;98.77;100588.53;6212802;23;20016;-91
2023/04/15 15:33:34;;;;;;;21.33;19.63;;;;;;;18.15;90.50;100584.75;6212980;23;20075;-93
2023/04/15 15:36:01;;;;;;;21.05;19.25;;;;;;;18.43;98.74;100580.91;6212130;23;21057;-92
2023/04/15 15:38:28;;;;;;;21.45;19.55;;;;;;;18.40;98.33;100576.06;6212555;23;20039;-92
2023/04/15 15:40:56;;;;;;;20.52;18.75;;;;;;;18.22;100.00;100583.47;6212500;23;20017;-91
2023/04/15 15:46:47;;;;;;;22.30;20.58;;;;;;;18.16;92.81;100576.44;6212330;23;20020;-93
2023/04/15 15:49:14;;;;;;;21.02;19.05;;;;;;;18.05;94.08;100567.50;6212353;23;20020;-92
2023/04/15 15:51:41;;;;;;;19.60;17.90;;;;;;;17.85;93.87;100567.34;6211928;23;20017;-92
2023/04/15 15:58:01;;;;;;;20.02;18.05;;;;;;;17.84;100.00;100555.81;6157953;23;20021;-92
2023/04/15 16:00:56;;;;;;;21.15;19.20;;;;;;;17.61;99.07;100566.91;6091698;23;20029;-92
2023/04/15 16:04:11;;;;;;;20.77;19.17;;;;;;;17.57;100.00;100557.72;6090845;23;20093;-92
2023/04/15 16:07:41;;;;;;;22.15;20.15;;;;;;;17.54;100.00;100566.28;6088455;23;20026;-91
2023/04/15 16:19:31;;;;;;;22.25;20.05;;;;;;;17.22;100.00;100556.34;5921105;24;20432;-91
2023/04/15 16:25:47;;;;;;;21.55;19.50;;;;;;;17.00;100.00;100545.63;6032830;23;20023;-92
2023/04/15 16:31:38;;;;;;;20.23;18.42;;;;;;;16.80;100.00;100554.28;6031999;23;20031;-91
2023/04/15 16:34:06;;;;;;;21.48;19.48;;;;;;;16.67;100.00;100566.19;6059448;23;20455;-91